Time;durP1;ratioP1;P1;durP2;ratioP2;P2;SDS_P1;SDS_P2;PMS_P1;PMS_P2;Temp;Humidity;BMP_temperature;BMP_pressure;BME280_temperature;BME280_humidity;BME280_pressure;Samples;Min_cycle;Max_cycle;Signal;HPM_P1;HPM_P2
2023/05/27 00:01:55;;;;;;;9.73;2.70;;;;;;;;;;4989601;28;20415;-74
2023/05/27 00:04:22;;;;;;;8.13;3.25;;;;;;;;;;4990222;28;20109;-74
2023/05/27 00:06:49;;;;;;;7.95;3.60;;;;;;;;;;4990077;28;20069;-74
2023/05/27 00:09:16;;;;;;;8.65;3.13;;;;;;;;;;4990127;28;20054;-74
2023/05/27 00:11:43;;;;;;;10.90;3.97;;;;;;;;;;4957955;28;20086;-75
2023/05/27 00:14:09;;;;;;;8.77;2.83;;;;;;;;;;4973750;28;20096;-74
2023/05/27 00:16:37;;;;;;;9.82;3.00;;;;;;;;;;4958038;28;20117;-74
2023/05/27 00:19:04;;;;;;;8.38;3.25;;;;;;;;;;4958006;28;20334;-75
2023/05/27 00:21:30;;;;;;;9.73;3.30;;;;;;;;;;4973813;28;20100;-75
2023/05/27 00:23:57;;;;;;;8.77;3.03;;;;;;;;;;4990716;28;20042;-74
2023/05/27 00:26:24;;;;;;;8.90;2.83;;;;;;;;;;4973759;28;20050;-74
2023/05/27 00:28:51;;;;;;;12.15;3.40;;;;;;;;;;4973050;28;20113;-74
2023/05/27 00:31:18;;;;;;;8.98;2.85;;;;;;;;;;4974023;28;20108;-74
2023/05/27 00:33:45;;;;;;;8.35;2.70;;;;;;;;;;4993284;28;20495;-74
2023/05/27 00:36:11;;;;;;;15.02;3.92;;;;;;;;;;4992945;28;20054;-74
2023/05/27 00:38:38;;;;;;;9.27;2.80;;;;;;;;;;4978875;28;20133;-74
2023/05/27 00:41:05;;;;;;;11.00;3.53;;;;;;;;;;4993191;28;20056;-74
2023/05/27 00:43:32;;;;;;;5.35;2.95;;;;;;;;;;4957954;28;20047;-74
2023/05/27 00:45:59;;;;;;;9.40;2.88;;;;;;;;;;4967660;28;20138;-74
2023/05/27 00:48:26;;;;;;;9.40;3.25;;;;;;;;;;4961462;28;20058;-74
2023/05/27 00:50:53;;;;;;;12.50;3.38;;;;;;;;;;4960914;28;20381;-75
2023/05/27 00:53:20;;;;;;;8.63;2.83;;;;;;;;;;4976990;28;20046;-74
2023/05/27 00:55:47;;;;;;;11.82;2.97;;;;;;;;;;4980174;28;20054;-74
2023/05/27 00:58:14;;;;;;;9.90;3.20;;;;;;;;;;4979917;28;20050;-74
2023/05/27 01:00:41;;;;;;;13.38;3.70;;;;;;;;;;4979761;28;20058;-74
2023/05/27 01:03:08;;;;;;;10.07;3.63;;;;;;;;;;5012526;28;20111;-74
2023/05/27 01:05:35;;;;;;;9.80;2.97;;;;;;;;;;4993757;28;20054;-74
2023/05/27 01:08:30;;;;;;;10.45;3.13;;;;;;;;;;4981395;28;20568;-74
2023/05/27 01:10:56;;;;;;;11.98;2.83;;;;;;;;;;5012882;28;20092;-74
2023/05/27 01:13:23;;;;;;;9.35;3.08;;;;;;;;;;4996316;28;20413;-75
2023/05/27 01:15:50;;;;;;;11.00;2.95;;;;;;;;;;5012455;28;20046;-75
2023/05/27 01:18:18;;;;;;;8.35;3.13;;;;;;;;;;4980856;28;20043;-74
2023/05/27 01:20:48;;;;;;;7.05;3.30;;;;;;;;;;4957414;28;20114;-74
2023/05/27 01:23:15;;;;;;;7.90;3.08;;;;;;;;;;4957272;28;20062;-74
2023/05/27 01:25:41;;;;;;;17.02;3.38;;;;;;;;;;4974043;28;20042;-74
2023/05/27 01:28:08;;;;;;;8.65;3.05;;;;;;;;;;4969074;28;20042;-74
2023/05/27 01:30:35;;;;;;;13.85;2.97;;;;;;;;;;5031068;28;20081;-74
2023/05/27 01:33:01;;;;;;;9.13;2.80;;;;;;;;;;4984224;28;20057;-74
2023/05/27 01:35:40;;;;;;;11.77;3.33;;;;;;;;;;5027896;28;20108;-74
2023/05/27 01:38:10;;;;;;;11.00;3.15;;;;;;;;;;4978261;28;20473;-74
2023/05/27 01:40:38;;;;;;;10.88;3.35;;;;;;;;;;4995094;28;20077;-74
2023/05/27 01:43:05;;;;;;;14.07;3.33;;;;;;;;;;4978593;28;20053;-73
2023/05/27 01:45:33;;;;;;;9.20;3.35;;;;;;;;;;4969616;28;20101;-72
2023/05/27 01:48:00;;;;;;;13.82;4.10;;;;;;;;;;4975891;28;20104;-72
2023/05/27 01:50:29;;;;;;;9.73;3.65;;;;;;;;;;4959408;28;20050;-72
2023/05/27 01:52:57;;;;;;;9.77;3.90;;;;;;;;;;4976633;28;20543;-72
2023/05/27 01:55:23;;;;;;;9.15;2.80;;;;;;;;;;4960072;28;20054;-74
2023/05/27 01:57:50;;;;;;;10.25;3.20;;;;;;;;;;4975772;28;20054;-72
2023/05/27 02:00:17;;;;;;;10.25;2.70;;;;;;;;;;4991622;28;20058;-72
2023/05/27 02:02:44;;;;;;;9.20;3.13;;;;;;;;;;4975646;28;20089;-72
2023/05/27 02:05:11;;;;;;;11.93;3.85;;;;;;;;;;4959619;28;20054;-72
2023/05/27 02:07:38;;;;;;;9.95;3.60;;;;;;;;;;4989902;28;20064;-72
2023/05/27 02:10:06;;;;;;;8.48;3.00;;;;;;;;;;4976352;28;20051;-72
2023/05/27 02:12:33;;;;;;;9.88;3.55;;;;;;;;;;4975835;28;20047;-73
2023/05/27 02:15:00;;;;;;;8.50;3.10;;;;;;;;;;4991638;28;20054;-72
2023/05/27 02:17:27;;;;;;;9.05;3.30;;;;;;;;;;4975540;28;20046;-75
2023/05/27 02:19:55;;;;;;;9.95;3.20;;;;;;;;;;5007892;28;20054;-72
2023/05/27 02:22:22;;;;;;;8.35;3.22;;;;;;;;;;4972076;28;20106;-73
2023/05/27 02:24:49;;;;;;;10.68;3.20;;;;;;;;;;4972395;28;20050;-73
2023/05/27 02:27:16;;;;;;;16.52;4.25;;;;;;;;;;4992334;28;20049;-73
2023/05/27 02:29:43;;;;;;;10.43;3.72;;;;;;;;;;4978431;28;20046;-73
2023/05/27 02:32:10;;;;;;;8.98;2.95;;;;;;;;;;4994128;28;20517;-73
2023/05/27 02:34:37;;;;;;;8.68;3.97;;;;;;;;;;5010524;28;20054;-73
2023/05/27 02:37:04;;;;;;;12.23;3.58;;;;;;;;;;4977323;28;20058;-72
2023/05/27 02:39:31;;;;;;;8.48;4.03;;;;;;;;;;4981463;28;20051;-72
2023/05/27 02:41:58;;;;;;;9.05;3.20;;;;;;;;;;4999916;28;20050;-73
2023/05/27 02:44:25;;;;;;;11.00;3.58;;;;;;;;;;4978049;28;20057;-72
2023/05/27 02:46:52;;;;;;;9.48;3.40;;;;;;;;;;4990609;28;20058;-72
2023/05/27 02:49:19;;;;;;;9.88;4.00;;;;;;;;;;4987454;28;20057;-72
2023/05/27 02:51:46;;;;;;;17.08;4.43;;;;;;;;;;5010735;28;20054;-71
2023/05/27 02:54:13;;;;;;;8.75;3.45;;;;;;;;;;4978870;28;20050;-72
2023/05/27 02:56:39;;;;;;;10.93;3.50;;;;;;;;;;5030112;28;20465;-72
2023/05/27 02:59:06;;;;;;;7.35;3.20;;;;;;;;;;4989610;28;20052;-72
2023/05/27 03:01:33;;;;;;;11.60;3.45;;;;;;;;;;4983301;28;20445;-72
2023/05/27 03:04:00;;;;;;;12.05;3.53;;;;;;;;;;5010300;28;20494;-71
2023/05/27 03:06:27;;;;;;;12.65;3.17;;;;;;;;;;5026660;28;20056;-74
2023/05/27 03:08:53;;;;;;;11.20;3.83;;;;;;;;;;5001379;28;20076;-72
2023/05/27 03:11:21;;;;;;;8.35;3.08;;;;;;;;;;4993891;28;20101;-72
2023/05/27 03:13:47;;;;;;;13.85;3.78;;;;;;;;;;4986428;28;20046;-72
2023/05/27 03:16:14;;;;;;;14.68;3.92;;;;;;;;;;4990443;28;20411;-73
2023/05/27 03:18:41;;;;;;;8.48;3.13;;;;;;;;;;4991715;28;20046;-72
2023/05/27 03:21:08;;;;;;;11.02;3.65;;;;;;;;;;5001664;28;20050;-72
2023/05/27 03:23:35;;;;;;;8.90;3.33;;;;;;;;;;4990476;28;20046;-71
2023/05/27 03:26:02;;;;;;;10.88;3.30;;;;;;;;;;4990520;28;20149;-72
2023/05/27 03:28:29;;;;;;;15.00;4.05;;;;;;;;;;4981289;28;20057;-73
2023/05/27 03:30:56;;;;;;;13.85;3.90;;;;;;;;;;4971377;28;20058;-73
2023/05/27 03:33:23;;;;;;;16.15;3.78;;;;;;;;;;4955135;28;20097;-72
2023/05/27 03:35:51;;;;;;;10.90;3.38;;;;;;;;;;4950441;28;20550;-73
2023/05/27 03:38:18;;;;;;;14.77;3.70;;;;;;;;;;5007907;28;20558;-73
2023/05/27 03:40:45;;;;;;;9.30;3.60;;;;;;;;;;4991288;28;20092;-73
2023/05/27 03:43:11;;;;;;;12.43;3.22;;;;;;;;;;4992348;28;20046;-72
2023/05/27 03:45:38;;;;;;;13.85;3.47;;;;;;;;;;4993395;28;20404;-73
2023/05/27 03:48:05;;;;;;;16.08;4.13;;;;;;;;;;4974513;28;20058;-72
2023/05/27 03:50:33;;;;;;;8.20;3.55;;;;;;;;;;4954906;28;20564;-72
2023/05/27 03:53:00;;;;;;;12.48;3.75;;;;;;;;;;4970986;28;20113;-72
2023/05/27 03:55:27;;;;;;;13.32;4.22;;;;;;;;;;4971024;28;20563;-72
2023/05/27 03:57:54;;;;;;;17.88;3.83;;;;;;;;;;4955056;28;20047;-72
2023/05/27 04:00:21;;;;;;;12.02;3.35;;;;;;;;;;4970856;28;20061;-72
2023/05/27 04:02:48;;;;;;;9.93;3.95;;;;;;;;;;4974225;28;20054;-73
2023/05/27 04:05:16;;;;;;;14.40;3.75;;;;;;;;;;4974784;28;20050;-72
2023/05/27 04:07:43;;;;;;;11.02;3.40;;;;;;;;;;5010365;28;20054;-72
2023/05/27 04:10:10;;;;;;;13.77;4.50;;;;;;;;;;4962110;28;20054;-72
2023/05/27 04:12:40;;;;;;;10.20;3.85;;;;;;;;;;4962604;28;20054;-73
2023/05/27 04:15:08;;;;;;;15.60;3.67;;;;;;;;;;4962293;28;20050;-73
2023/05/27 04:17:35;;;;;;;12.32;3.65;;;;;;;;;;4994526;28;20102;-72
2023/05/27 04:20:11;;;;;;;14.65;4.75;;;;;;;;;;4993999;28;20054;-73
2023/05/27 04:22:38;;;;;;;11.50;3.88;;;;;;;;;;4992684;28;20109;-73
2023/05/27 04:25:05;;;;;;;11.73;4.50;;;;;;;;;;4994069;28;20077;-73
2023/05/27 04:27:32;;;;;;;12.95;3.33;;;;;;;;;;4994354;28;20054;-73
2023/05/27 04:30:04;;;;;;;10.68;3.92;;;;;;;;;;4994870;28;20081;-73
2023/05/27 04:32:32;;;;;;;16.27;4.30;;;;;;;;;;4988970;28;20427;-73
2023/05/27 04:35:02;;;;;;;14.25;4.10;;;;;;;;;;4994506;28;20065;-73
2023/05/27 04:37:29;;;;;;;13.77;4.40;;;;;;;;;;5002513;28;20088;-73
2023/05/27 04:39:56;;;;;;;15.25;4.50;;;;;;;;;;4982894;28;20489;-72
2023/05/27 04:42:24;;;;;;;10.32;4.03;;;;;;;;;;4993672;28;20062;-75
2023/05/27 04:44:51;;;;;;;14.50;4.80;;;;;;;;;;4964773;28;20104;-74
2023/05/27 04:47:18;;;;;;;10.95;3.28;;;;;;;;;;4993448;28;20057;-75
2023/05/27 04:49:46;;;;;;;13.15;4.05;;;;;;;;;;4961207;28;20061;-75
2023/05/27 04:52:13;;;;;;;15.93;4.03;;;;;;;;;;4961581;28;20491;-75
2023/05/27 04:54:39;;;;;;;13.02;4.60;;;;;;;;;;4961386;28;20399;-74
2023/05/27 04:57:06;;;;;;;17.25;4.05;;;;;;;;;;5009680;28;20108;-73
2023/05/27 04:59:58;;;;;;;12.40;3.70;;;;;;;;;;4993336;28;20093;-75
2023/05/27 05:02:33;;;;;;;15.07;4.03;;;;;;;;;;4996493;28;20046;-75
2023/05/27 05:05:02;;;;;;;12.15;4.03;;;;;;;;;;4979527;28;20054;-74
2023/05/27 05:07:29;;;;;;;12.75;4.10;;;;;;;;;;4958735;28;20078;-75
2023/05/27 05:09:56;;;;;;;14.48;4.32;;;;;;;;;;4977103;28;20064;-75
2023/05/27 05:12:23;;;;;;;11.23;3.55;;;;;;;;;;4977221;28;20101;-75
2023/05/27 05:14:50;;;;;;;10.75;3.80;;;;;;;;;;4961684;28;20101;-74
2023/05/27 05:17:18;;;;;;;13.60;3.55;;;;;;;;;;4960075;28;20486;-75
2023/05/27 05:19:45;;;;;;;9.50;3.45;;;;;;;;;;4960976;28;20425;-75
2023/05/27 05:22:18;;;;;;;12.30;3.72;;;;;;;;;;4992964;28;20057;-74
2023/05/27 05:24:45;;;;;;;;;;;;;;;;;;4994086;28;20518;-74
2023/05/27 05:27:12;;;;;;;11.63;3.85;;;;;;;;;;4992420;28;20529;-75
2023/05/27 05:29:40;;;;;;;10.57;4.22;;;;;;;;;;4960666;28;20426;-74
2023/05/27 05:32:07;;;;;;;12.50;3.42;;;;;;;;;;4960505;28;20098;-74
2023/05/27 05:34:34;;;;;;;12.10;3.75;;;;;;;;;;4960925;28;20610;-73
2023/05/27 05:37:01;;;;;;;14.35;3.90;;;;;;;;;;4992420;28;20546;-73
2023/05/27 05:39:27;;;;;;;9.63;3.78;;;;;;;;;;4989228;28;20106;-73
2023/05/27 05:41:55;;;;;;;13.05;3.78;;;;;;;;;;4941392;28;20420;-75
2023/05/27 05:44:22;;;;;;;14.80;4.07;;;;;;;;;;4958099;28;20046;-76
2023/05/27 05:46:49;;;;;;;11.52;4.00;;;;;;;;;;4957295;28;20059;-75
2023/05/27 05:49:18;;;;;;;19.15;4.00;;;;;;;;;;4961638;28;20506;-74
2023/05/27 05:51:45;;;;;;;15.02;3.85;;;;;;;;;;4988270;28;20124;-74
2023/05/27 05:54:12;;;;;;;21.08;4.80;;;;;;;;;;4971406;28;20047;-74
2023/05/27 05:56:39;;;;;;;17.52;4.93;;;;;;;;;;4960171;28;20498;-74
2023/05/27 05:59:06;;;;;;;11.20;3.30;;;;;;;;;;4966149;28;20051;-74
2023/05/27 06:01:33;;;;;;;11.98;3.58;;;;;;;;;;4990316;28;20553;-74
2023/05/27 06:04:03;;;;;;;8.88;2.90;;;;;;;;;;4988189;28;20168;-74
2023/05/27 06:06:31;;;;;;;8.20;3.20;;;;;;;;;;4974865;28;20502;-74
2023/05/27 06:08:58;;;;;;;10.43;3.42;;;;;;;;;;4981867;28;20129;-74
2023/05/27 06:11:26;;;;;;;11.10;4.15;;;;;;;;;;4974749;28;20064;-74
2023/05/27 06:13:53;;;;;;;10.55;4.03;;;;;;;;;;4973442;28;20121;-74
2023/05/27 06:16:19;;;;;;;9.38;2.88;;;;;;;;;;4958000;28;20054;-74
2023/05/27 06:18:46;;;;;;;13.95;3.28;;;;;;;;;;4990362;28;20058;-74
2023/05/27 06:21:13;;;;;;;12.05;3.95;;;;;;;;;;4974034;28;20050;-74
2023/05/27 06:23:40;;;;;;;13.82;3.38;;;;;;;;;;4974234;28;20112;-74
2023/05/27 06:26:07;;;;;;;11.70;3.90;;;;;;;;;;4990055;28;20089;-75
2023/05/27 06:28:34;;;;;;;13.13;3.50;;;;;;;;;;4974071;28;20077;-75
2023/05/27 06:31:00;;;;;;;12.63;3.50;;;;;;;;;;4958451;28;20494;-74
2023/05/27 06:33:28;;;;;;;13.18;3.60;;;;;;;;;;4958117;28;20047;-74
2023/05/27 06:35:55;;;;;;;11.02;3.78;;;;;;;;;;4974187;28;20426;-75
2023/05/27 06:38:23;;;;;;;10.82;3.97;;;;;;;;;;4991223;28;20128;-74
2023/05/27 06:40:50;;;;;;;10.60;3.40;;;;;;;;;;4958318;28;20046;-76
2023/05/27 06:43:17;;;;;;;9.82;3.20;;;;;;;;;;4974027;28;20054;-73
2023/05/27 06:45:44;;;;;;;8.77;3.13;;;;;;;;;;4987340;28;20050;-71
2023/05/27 06:48:28;;;;;;;11.00;3.35;;;;;;;;;;4987666;28;20089;-72
2023/05/27 06:50:56;;;;;;;10.95;3.88;;;;;;;;;;4988564;28;20105;-72
2023/05/27 06:53:23;;;;;;;10.57;3.58;;;;;;;;;;4971423;28;20050;-73
2023/05/27 06:55:50;;;;;;;10.00;3.10;;;;;;;;;;4979712;28;20052;-72
2023/05/27 06:58:17;;;;;;;11.65;3.90;;;;;;;;;;5010225;28;20050;-74
2023/05/27 07:00:44;;;;;;;11.57;3.35;;;;;;;;;;4974305;28;20089;-72
2023/05/27 07:03:11;;;;;;;10.27;3.33;;;;;;;;;;4974884;28;20459;-72
2023/05/27 07:05:38;;;;;;;14.75;3.47;;;;;;;;;;4971299;28;20490;-72
2023/05/27 07:08:06;;;;;;;9.73;3.08;;;;;;;;;;4955447;28;20578;-72
2023/05/27 07:10:33;;;;;;;9.32;3.00;;;;;;;;;;4971528;28;20085;-74
2023/05/27 07:12:59;;;;;;;11.77;3.60;;;;;;;;;;4974531;28;20050;-73
2023/05/27 07:15:27;;;;;;;10.55;3.55;;;;;;;;;;4974598;28;20121;-72
2023/05/27 07:17:54;;;;;;;7.47;3.47;;;;;;;;;;4988821;28;20042;-73
2023/05/27 07:20:24;;;;;;;11.45;3.42;;;;;;;;;;4967262;28;20078;-72
2023/05/27 07:22:51;;;;;;;13.13;4.90;;;;;;;;;;4990279;28;20076;-74
2023/05/27 07:25:18;;;;;;;12.65;3.90;;;;;;;;;;4974578;28;20046;-74
2023/05/27 07:27:45;;;;;;;11.43;3.63;;;;;;;;;;4972799;28;20061;-74
2023/05/27 07:30:12;;;;;;;10.30;3.25;;;;;;;;;;4956423;28;20046;-75
2023/05/27 07:32:39;;;;;;;10.20;3.83;;;;;;;;;;4959529;28;20100;-73
2023/05/27 07:35:06;;;;;;;9.00;2.80;;;;;;;;;;4990868;28;20081;-73
2023/05/27 07:37:33;;;;;;;10.85;4.10;;;;;;;;;;4955412;28;20070;-73
2023/05/27 07:40:00;;;;;;;10.30;3.78;;;;;;;;;;4986659;28;20420;-73
2023/05/27 07:42:27;;;;;;;7.88;3.25;;;;;;;;;;4971454;28;20412;-73
2023/05/27 07:44:55;;;;;;;12.70;4.45;;;;;;;;;;4971393;28;20120;-75
2023/05/27 07:47:21;;;;;;;11.73;3.90;;;;;;;;;;5009952;28;20050;-75
2023/05/27 07:49:49;;;;;;;11.02;3.30;;;;;;;;;;4984483;28;20058;-74
2023/05/27 07:52:17;;;;;;;8.55;2.90;;;;;;;;;;5001897;28;20055;-74
2023/05/27 07:54:44;;;;;;;9.80;4.22;;;;;;;;;;5001956;28;20038;-74
2023/05/27 07:57:20;;;;;;;9.90;3.45;;;;;;;;;;5018518;28;20057;-74
2023/05/27 07:59:47;;;;;;;10.18;3.47;;;;;;;;;;5017786;28;20030;-74
2023/05/27 08:02:14;;;;;;;11.40;3.35;;;;;;;;;;4984196;28;20041;-74
2023/05/27 08:04:43;;;;;;;9.50;3.38;;;;;;;;;;4997751;28;20089;-75
2023/05/27 08:07:10;;;;;;;12.32;3.17;;;;;;;;;;4982366;28;20053;-74
2023/05/27 08:09:37;;;;;;;10.07;3.38;;;;;;;;;;4956974;28;20482;-75
2023/05/27 08:12:06;;;;;;;9.55;3.20;;;;;;;;;;4958608;28;20061;-74
2023/05/27 08:14:34;;;;;;;9.38;3.40;;;;;;;;;;4990392;28;20511;-75
2023/05/27 08:17:01;;;;;;;12.52;3.60;;;;;;;;;;4955014;28;20047;-74
2023/05/27 08:19:28;;;;;;;8.10;3.72;;;;;;;;;;4970843;28;20057;-75
2023/05/27 08:21:56;;;;;;;10.23;4.15;;;;;;;;;;4954811;28;20063;-74
2023/05/27 08:24:24;;;;;;;14.93;3.83;;;;;;;;;;4974136;28;20061;-75
2023/05/27 08:26:51;;;;;;;10.57;3.72;;;;;;;;;;4964800;28;20058;-74
2023/05/27 08:29:18;;;;;;;10.48;3.65;;;;;;;;;;4986852;28;20046;-75
2023/05/27 08:31:45;;;;;;;7.68;3.58;;;;;;;;;;4958344;28;20113;-75
2023/05/27 08:34:12;;;;;;;14.10;3.65;;;;;;;;;;4958476;28;20054;-76
2023/05/27 08:36:39;;;;;;;8.55;3.20;;;;;;;;;;4986719;28;20075;-75
2023/05/27 08:39:06;;;;;;;10.23;3.70;;;;;;;;;;4972795;28;20110;-75
2023/05/27 08:41:32;;;;;;;12.27;3.50;;;;;;;;;;4956388;28;20055;-75
2023/05/27 08:43:59;;;;;;;7.75;3.55;;;;;;;;;;4939048;28;20054;-75
2023/05/27 08:46:48;;;;;;;8.13;3.40;;;;;;;;;;4977916;28;20526;-75
2023/05/27 08:49:18;;;;;;;11.07;4.13;;;;;;;;;;4959353;28;20047;-75
2023/05/27 08:51:45;;;;;;;14.43;3.45;;;;;;;;;;4977665;28;20089;-75
2023/05/27 08:54:12;;;;;;;8.50;4.13;;;;;;;;;;4975915;28;20046;-75
2023/05/27 08:56:40;;;;;;;7.68;3.92;;;;;;;;;;4993288;28;20061;-75
2023/05/27 08:59:07;;;;;;;8.20;3.38;;;;;;;;;;4977512;28;20053;-75
2023/05/27 09:01:34;;;;;;;8.80;3.83;;;;;;;;;;4993053;28;20054;-75
2023/05/27 09:04:01;;;;;;;9.13;3.78;;;;;;;;;;4980047;28;20042;-75
2023/05/27 09:06:27;;;;;;;10.75;4.28;;;;;;;;;;4989299;28;20069;-75
2023/05/27 09:08:54;;;;;;;9.02;3.72;;;;;;;;;;4963593;28;20090;-76
2023/05/27 09:11:23;;;;;;;7.90;3.33;;;;;;;;;;4973595;28;20121;-74
2023/05/27 09:13:50;;;;;;;8.93;4.00;;;;;;;;;;5007470;28;20074;-76
2023/05/27 09:16:20;;;;;;;11.70;4.20;;;;;;;;;;4987929;28;20042;-75
2023/05/27 09:18:47;;;;;;;10.98;4.75;;;;;;;;;;4977277;28;20050;-77
2023/05/27 09:21:14;;;;;;;9.23;4.38;;;;;;;;;;4960834;28;20042;-75
2023/05/27 09:23:41;;;;;;;9.45;4.15;;;;;;;;;;4978919;28;20057;-77
2023/05/27 09:26:09;;;;;;;8.65;3.60;;;;;;;;;;4976975;28;20056;-74
2023/05/27 09:28:37;;;;;;;9.88;4.10;;;;;;;;;;4978862;28;20101;-74
2023/05/27 09:31:06;;;;;;;9.07;3.38;;;;;;;;;;4977641;28;20066;-74
2023/05/27 09:33:35;;;;;;;8.45;4.47;;;;;;;;;;4962241;28;20050;-73
2023/05/27 09:36:03;;;;;;;6.95;3.55;;;;;;;;;;4982060;28;20042;-73
2023/05/27 09:38:31;;;;;;;8.13;4.00;;;;;;;;;;5006126;28;20062;-74
2023/05/27 09:40:58;;;;;;;10.00;3.75;;;;;;;;;;4964984;28;20054;-74
2023/05/27 09:43:26;;;;;;;7.68;3.45;;;;;;;;;;4962403;28;20124;-74
2023/05/27 09:46:04;;;;;;;6.38;3.90;;;;;;;;;;4988636;28;20043;-74
2023/05/27 09:48:31;;;;;;;9.52;3.65;;;;;;;;;;4941552;28;20055;-75
2023/05/27 09:51:01;;;;;;;10.63;3.78;;;;;;;;;;4972690;28;20058;-75
2023/05/27 09:53:30;;;;;;;6.80;3.63;;;;;;;;;;4972911;28;20134;-75
2023/05/27 09:55:57;;;;;;;10.50;4.53;;;;;;;;;;4941203;28;20055;-75
2023/05/27 09:58:24;;;;;;;6.78;3.47;;;;;;;;;;4960782;28;20054;-74
2023/05/27 10:00:51;;;;;;;8.57;3.75;;;;;;;;;;4973095;28;20078;-75
2023/05/27 10:03:23;;;;;;;7.25;3.17;;;;;;;;;;4990228;28;20059;-75
2023/05/27 10:05:51;;;;;;;8.00;3.77;;;;;;;;;;4974676;28;20054;-74
2023/05/27 10:08:21;;;;;;;6.65;3.60;;;;;;;;;;4975957;28;20541;-75
2023/05/27 10:10:52;;;;;;;7.00;4.18;;;;;;;;;;4960877;28;20126;-74
2023/05/27 10:13:24;;;;;;;10.10;4.22;;;;;;;;;;4959947;28;20093;-73
2023/05/27 10:15:52;;;;;;;7.80;3.45;;;;;;;;;;4992841;28;20045;-75
2023/05/27 10:18:33;;;;;;;12.02;4.40;;;;;;;;;;4985147;28;20053;-74
2023/05/27 10:21:03;;;;;;;6.70;3.88;;;;;;;;;;4979302;28;20058;-73
2023/05/27 10:23:31;;;;;;;7.25;3.60;;;;;;;;;;4975467;28;20056;-73
2023/05/27 10:26:08;;;;;;;7.75;4.25;;;;;;;;;;4975597;28;20039;-73
2023/05/27 10:28:41;;;;;;;8.20;3.88;;;;;;;;;;4976066;28;20134;-73
2023/05/27 10:31:15;;;;;;;7.55;3.53;;;;;;;;;;4974990;28;20042;-73
2023/05/27 10:33:44;;;;;;;8.02;3.58;;;;;;;;;;4991711;28;20070;-73
2023/05/27 10:36:15;;;;;;;8.55;3.80;;;;;;;;;;4976322;28;20052;-73
2023/05/27 10:38:43;;;;;;;13.15;4.22;;;;;;;;;;4981687;28;20082;-75
2023/05/27 10:41:10;;;;;;;6.60;3.85;;;;;;;;;;4972792;28;20100;-73
2023/05/27 10:43:37;;;;;;;7.25;4.13;;;;;;;;;;5002265;28;20065;-73
2023/05/27 10:46:09;;;;;;;7.50;3.92;;;;;;;;;;5009932;28;20087;-73
2023/05/27 10:48:38;;;;;;;10.02;4.05;;;;;;;;;;4964553;28;20061;-73
2023/05/27 10:51:06;;;;;;;8.45;3.58;;;;;;;;;;4976057;28;20047;-73
2023/05/27 10:53:35;;;;;;;9.82;4.65;;;;;;;;;;4958237;28;20082;-73
2023/05/27 10:56:02;;;;;;;7.80;3.65;;;;;;;;;;4954663;28;20084;-73
2023/05/27 10:58:30;;;;;;;6.93;3.53;;;;;;;;;;4987256;28;20066;-74
2023/05/27 11:00:57;;;;;;;7.50;3.78;;;;;;;;;;4956691;28;20074;-74
2023/05/27 11:03:25;;;;;;;8.02;3.78;;;;;;;;;;4966101;28;20499;-74
2023/05/27 11:06:05;;;;;;;13.55;4.10;;;;;;;;;;4982135;28;20110;-74
2023/05/27 11:08:33;;;;;;;8.90;3.50;;;;;;;;;;4945732;28;20503;-73
2023/05/27 11:11:06;;;;;;;9.02;3.78;;;;;;;;;;4954744;28;20054;-74
2023/05/27 11:13:43;;;;;;;7.22;3.45;;;;;;;;;;4979728;28;20054;-74
2023/05/27 11:16:14;;;;;;;9.57;4.35;;;;;;;;;;4966749;28;20459;-73
2023/05/27 11:18:46;;;;;;;7.88;3.53;;;;;;;;;;4962889;28;20058;-74
2023/05/27 11:21:17;;;;;;;8.13;3.90;;;;;;;;;;4950386;28;20046;-73
2023/05/27 11:23:48;;;;;;;9.60;3.90;;;;;;;;;;4973668;28;20046;-73
2023/05/27 11:26:19;;;;;;;6.03;3.70;;;;;;;;;;4971108;28;20421;-74
2023/05/27 11:28:51;;;;;;;7.43;4.13;;;;;;;;;;4968009;28;20142;-73
2023/05/27 11:31:19;;;;;;;8.55;4.07;;;;;;;;;;5003843;28;20051;-74
2023/05/27 11:33:49;;;;;;;7.55;4.03;;;;;;;;;;4955724;28;20046;-74
2023/05/27 11:36:16;;;;;;;5.00;3.30;;;;;;;;;;4951414;28;20120;-74
2023/05/27 11:38:57;;;;;;;6.97;3.80;;;;;;;;;;4951598;28;20445;-74
2023/05/27 11:41:26;;;;;;;7.70;3.63;;;;;;;;;;4983267;28;20428;-74
2023/05/27 11:44:01;;;;;;;5.93;3.40;;;;;;;;;;4969151;28;20050;-73
2023/05/27 11:46:40;;;;;;;9.63;3.58;;;;;;;;;;4969053;28;20049;-73
2023/05/27 11:49:12;;;;;;;5.45;3.58;;;;;;;;;;4958783;28;20142;-74
2023/05/27 11:51:41;;;;;;;7.65;4.60;;;;;;;;;;4956552;28;20050;-74
2023/05/27 11:54:27;;;;;;;7.32;4.55;;;;;;;;;;4967722;28;20122;-74
2023/05/27 11:56:55;;;;;;;8.32;3.88;;;;;;;;;;4972401;28;20072;-74
2023/05/27 11:59:23;;;;;;;7.38;3.50;;;;;;;;;;4987229;28;20147;-73
2023/05/27 12:01:51;;;;;;;8.30;4.00;;;;;;;;;;4973246;28;20511;-74
2023/05/27 12:04:18;;;;;;;5.57;3.70;;;;;;;;;;4953450;28;20058;-73
2023/05/27 12:06:45;;;;;;;8.18;4.13;;;;;;;;;;5005187;28;20153;-73
2023/05/27 12:09:12;;;;;;;7.13;3.97;;;;;;;;;;4954372;28;20086;-73
2023/05/27 12:11:39;;;;;;;7.72;3.63;;;;;;;;;;4976885;28;20054;-72
2023/05/27 12:14:05;;;;;;;9.25;4.30;;;;;;;;;;4982225;28;20490;-73
2023/05/27 12:16:32;;;;;;;6.70;3.65;;;;;;;;;;4977775;28;20075;-73
2023/05/27 12:19:00;;;;;;;9.80;4.10;;;;;;;;;;4956351;28;20050;-73
2023/05/27 12:21:26;;;;;;;8.13;4.00;;;;;;;;;;4981059;28;20101;-73
2023/05/27 12:23:54;;;;;;;11.23;3.70;;;;;;;;;;4979118;28;20053;-72
2023/05/27 12:26:22;;;;;;;7.22;3.30;;;;;;;;;;4946771;28;20466;-73
2023/05/27 12:28:48;;;;;;;8.63;3.78;;;;;;;;;;4983258;28;20054;-75
2023/05/27 12:31:16;;;;;;;7.35;3.40;;;;;;;;;;4947168;28;20097;-74
2023/05/27 12:33:44;;;;;;;5.80;3.42;;;;;;;;;;4951214;28;20058;-74
2023/05/27 12:36:11;;;;;;;7.28;3.30;;;;;;;;;;4963283;28;20042;-74
2023/05/27 12:38:38;;;;;;;7.68;3.78;;;;;;;;;;4947812;28;20058;-74
2023/05/27 12:41:05;;;;;;;6.15;3.58;;;;;;;;;;4956185;28;20083;-74
2023/05/27 12:43:32;;;;;;;10.65;3.90;;;;;;;;;;4964804;28;20079;-74
2023/05/27 12:45:59;;;;;;;7.25;3.60;;;;;;;;;;4956604;28;20043;-74
2023/05/27 12:48:26;;;;;;;7.63;3.38;;;;;;;;;;4955627;28;20046;-74
2023/05/27 12:50:53;;;;;;;6.85;3.65;;;;;;;;;;4984660;28;20097;-74
2023/05/27 12:53:20;;;;;;;7.90;4.05;;;;;;;;;;4965418;28;20050;-74
2023/05/27 12:55:47;;;;;;;9.30;3.80;;;;;;;;;;4962334;28;20046;-74
2023/05/27 12:58:14;;;;;;;7.43;3.38;;;;;;;;;;4985249;28;20055;-75
2023/05/27 13:00:41;;;;;;;7.93;3.65;;;;;;;;;;4982131;28;20157;-75
2023/05/27 13:03:08;;;;;;;9.68;4.00;;;;;;;;;;4972279;28;20180;-75
2023/05/27 13:05:38;;;;;;;6.07;3.63;;;;;;;;;;4985676;28;20054;-75
2023/05/27 13:08:06;;;;;;;5.55;3.05;;;;;;;;;;4948929;28;20153;-75
2023/05/27 13:10:33;;;;;;;8.27;3.83;;;;;;;;;;4975211;28;20046;-74
2023/05/27 13:13:00;;;;;;;9.93;3.85;;;;;;;;;;4969611;28;20493;-74
2023/05/27 13:15:28;;;;;;;8.15;3.70;;;;;;;;;;4962027;28;20124;-76
2023/05/27 13:17:56;;;;;;;6.07;2.67;;;;;;;;;;4979014;28;20047;-74
2023/05/27 13:20:24;;;;;;;6.18;3.67;;;;;;;;;;4975900;28;20054;-74
2023/05/27 13:22:52;;;;;;;9.20;3.35;;;;;;;;;;4986255;28;20520;-75
2023/05/27 13:25:20;;;;;;;9.77;3.25;;;;;;;;;;4968073;28;20102;-74
2023/05/27 13:27:47;;;;;;;11.98;4.05;;;;;;;;;;4948207;28;20454;-74
2023/05/27 13:30:15;;;;;;;7.07;3.97;;;;;;;;;;4973132;28;20062;-74
2023/05/27 13:32:43;;;;;;;7.68;3.50;;;;;;;;;;4988868;28;20495;-74
2023/05/27 13:35:11;;;;;;;7.50;3.70;;;;;;;;;;4949216;28;20054;-74
2023/05/27 13:37:41;;;;;;;5.57;3.38;;;;;;;;;;4946756;28;20077;-74
2023/05/27 13:40:08;;;;;;;6.97;3.60;;;;;;;;;;4987720;28;20447;-78
2023/05/27 13:42:36;;;;;;;9.52;3.55;;;;;;;;;;4953842;28;20054;-79
2023/05/27 13:45:03;;;;;;;9.50;3.92;;;;;;;;;;4958117;28;20422;-77
2023/05/27 13:47:30;;;;;;;5.70;2.80;;;;;;;;;;4948485;28;20067;-78
2023/05/27 13:49:57;;;;;;;5.70;3.10;;;;;;;;;;4991216;28;20046;-79
2023/05/27 13:52:25;;;;;;;7.00;2.88;;;;;;;;;;4948106;28;20046;-78
2023/05/27 13:54:52;;;;;;;6.20;2.95;;;;;;;;;;4947262;28;20050;-77
2023/05/27 13:57:19;;;;;;;4.75;2.65;;;;;;;;;;4956431;28;20319;-79
2023/05/27 13:59:45;;;;;;;9.32;3.10;;;;;;;;;;4981696;28;20687;-79
2023/05/27 14:02:12;;;;;;;5.35;2.90;;;;;;;;;;4963974;28;20050;-79
2023/05/27 14:04:39;;;;;;;7.97;3.55;;;;;;;;;;4982161;28;20085;-79
2023/05/27 14:07:06;;;;;;;7.57;2.78;;;;;;;;;;4948070;28;20105;-78
2023/05/27 14:09:33;;;;;;;8.13;3.35;;;;;;;;;;4965953;28;20074;-79
2023/05/27 14:12:02;;;;;;;6.07;2.67;;;;;;;;;;4947790;28;20101;-79
2023/05/27 14:14:29;;;;;;;5.05;2.80;;;;;;;;;;4953889;28;20062;-78
2023/05/27 14:16:56;;;;;;;6.75;2.63;;;;;;;;;;4953419;28;20070;-78
2023/05/27 14:19:23;;;;;;;5.53;2.78;;;;;;;;;;4953687;28;20043;-78
2023/05/27 14:21:50;;;;;;;7.28;2.70;;;;;;;;;;4952258;28;20064;-79
2023/05/27 14:24:17;;;;;;;7.55;3.10;;;;;;;;;;4951923;28;20153;-79
2023/05/27 14:26:44;;;;;;;6.45;2.50;;;;;;;;;;4973865;28;20117;-79
2023/05/27 14:29:11;;;;;;;5.28;2.85;;;;;;;;;;4975533;28;20125;-79
2023/05/27 14:31:38;;;;;;;5.63;2.80;;;;;;;;;;4948443;28;20047;-78
2023/05/27 14:34:05;;;;;;;7.10;3.00;;;;;;;;;;4954636;28;20129;-79
2023/05/27 14:36:32;;;;;;;8.80;2.70;;;;;;;;;;4959256;28;20038;-80
2023/05/27 14:39:03;;;;;;;5.40;2.45;;;;;;;;;;4980291;28;20530;-74
2023/05/27 14:41:30;;;;;;;6.03;3.00;;;;;;;;;;4979118;28;20053;-75
2023/05/27 14:43:56;;;;;;;5.70;2.60;;;;;;;;;;4954965;28;20531;-74